KABE

Lehigh Valley International Airport

Allentown, Pennsylvania, USA
METAR KABE 182351Z 06005KT 10SM OVC035 04/M02 A3024 RMK AO2 SLP245 T00391017 10056 20033 56008
Observed Flight Rules
Nov-18 @ 23:51 UTC (an hour ago) Visual Flight Rules
Wind Visibility Clouds
60° at 5 knots 10 miles
  • Overcast at 3,500' AGL
Temperatures Readings
Current 4°C / 39°F
Dewpoint -2°C / 28°F
Humidity 65%
Altimeter 30.24" Hg
Pressure 1024.5 hPa
Elevation 114
METAR KABE 182351Z 06005KT 10SM OVC035 04/M02 A3024 RMK AO2 SLP245 T00391017 10056 20033 56008
Observed Flight Rules
Nov-18 @ 23:51 UTC
(an hour ago)
VFR
Wind Visibility
60° at 5 knots 10 miles
Clouds
  • Overcast at 3,500' AGL
Temperature Dewpoint
4°C / 39°F -2°C / 28°F
Humidity Altimeter Pressure
65% 30.24" Hg 1024.5 hPa